createdAt,value
2019-02-15T00:05:04.003Z,102316.69
2019-02-15T00:07:32.094Z,102312.10
2019-02-15T00:10:00.310Z,102313.12
2019-02-15T00:12:28.341Z,102314.09
2019-02-15T00:14:56.371Z,102307.35
2019-02-15T00:17:43.533Z,102316.91
2019-02-15T00:20:17.289Z,102313.67
2019-02-15T00:22:45.364Z,102304.17
2019-02-15T00:25:13.436Z,102307.02
2019-02-15T00:27:41.442Z,102307.30
2019-02-15T00:30:10.918Z,102305.10
2019-02-15T00:32:39.053Z,102300.28
2019-02-15T00:35:07.127Z,102304.99
2019-02-15T00:37:35.077Z,102291.23
2019-02-15T00:40:03.105Z,102298.30
2019-02-15T00:42:31.113Z,102296.98
2019-02-15T00:44:59.150Z,102294.98
2019-02-15T00:47:42.815Z,102290.00
2019-02-15T00:50:28.647Z,102295.46
2019-02-15T00:53:21.409Z,102296.69
2019-02-15T00:55:55.781Z,102296.77
2019-02-15T00:58:36.292Z,102300.91
2019-02-15T01:01:15.540Z,102301.27
2019-02-15T01:04:01.957Z,102298.55
2019-02-15T01:06:48.885Z,102298.96
2019-02-15T01:09:38.923Z,102301.32
2019-02-15T01:12:31.959Z,102303.22
2019-02-15T01:14:59.981Z,102290.31
2019-02-15T01:17:28.010Z,102284.94
2019-02-15T01:19:56.178Z,102289.07
2019-02-15T01:22:24.151Z,102289.74
2019-02-15T01:24:52.344Z,102289.78
2019-02-15T01:27:39.466Z,102288.04
2019-02-15T01:30:26.742Z,102291.78
2019-02-15T01:33:02.086Z,102285.59
2019-02-15T01:35:48.995Z,102283.16
2019-02-15T01:38:33.211Z,102285.65
2019-02-15T01:41:10.912Z,102284.45
2019-02-15T01:44:03.586Z,102278.59
2019-02-15T01:46:50.569Z,102286.80
2019-02-15T01:49:18.645Z,102281.75
2019-02-15T01:51:46.741Z,102277.28
2019-02-15T01:54:14.771Z,102273.27
2019-02-15T01:56:43.087Z,102275.00
2019-02-15T01:59:11.097Z,102269.11
2019-02-15T02:01:39.130Z,102265.45
2019-02-15T02:04:07.120Z,102271.17
2019-02-15T02:06:35.131Z,102264.34
2019-02-15T02:09:03.325Z,102267.85
2019-02-15T02:11:31.389Z,102264.34
2019-02-15T02:13:59.387Z,102262.05
2019-02-15T02:16:27.396Z,102264.11
2019-02-15T02:18:55.536Z,102265.61
2019-02-15T02:21:23.566Z,102257.44
2019-02-15T02:23:51.623Z,102255.23
2019-02-15T02:26:19.686Z,102256.45
2019-02-15T02:28:47.718Z,102258.36
2019-02-15T02:31:15.752Z,102246.47
2019-02-15T02:33:43.810Z,102254.20
2019-02-15T02:36:11.868Z,102247.33
2019-02-15T02:38:39.867Z,102250.03
2019-02-15T02:41:07.928Z,102247.84
2019-02-15T02:43:35.990Z,102245.45
2019-02-15T02:46:04.008Z,102244.06
2019-02-15T02:48:32.167Z,102246.44
2019-02-15T02:51:00.163Z,102244.23
2019-02-15T02:53:28.208Z,102243.40
2019-02-15T02:55:56.254Z,102242.42
2019-02-15T02:58:24.282Z,102244.48
2019-02-15T03:00:52.340Z,102239.05
2019-02-15T03:03:20.354Z,102239.36
2019-02-15T03:05:48.375Z,102237.27
2019-02-15T03:08:16.445Z,102238.66
2019-02-15T03:10:44.415Z,102235.30
2019-02-15T03:13:12.480Z,102242.28
2019-02-15T03:15:40.509Z,102236.51
2019-02-15T03:18:08.545Z,102233.69
2019-02-15T03:20:36.634Z,102235.00
2019-02-15T03:23:04.691Z,102231.97
2019-02-15T03:25:32.731Z,102231.83
2019-02-15T03:28:00.736Z,102229.87
2019-02-15T03:30:28.850Z,102230.70
2019-02-15T03:32:56.866Z,102221.30
2019-02-15T03:35:24.889Z,102225.99
2019-02-15T03:38:09.571Z,102224.45
2019-02-15T03:40:43.127Z,102223.88
2019-02-15T03:43:11.220Z,102228.78
2019-02-15T03:45:39.296Z,102231.45
2019-02-15T03:48:07.364Z,102231.98
2019-02-15T03:50:35.395Z,102229.22
2019-02-15T03:53:03.452Z,102227.82
2019-02-15T03:55:31.458Z,102226.09
2019-02-15T03:57:59.436Z,102223.97
2019-02-15T04:00:27.441Z,102218.08
2019-02-15T04:02:55.432Z,102223.05
2019-02-15T04:05:23.440Z,102229.92
2019-02-15T04:07:51.500Z,102225.02
2019-02-15T04:10:19.601Z,102229.69
2019-02-15T04:12:47.681Z,102237.41
2019-02-15T04:15:16.037Z,102232.36
2019-02-15T04:17:44.032Z,102233.39
2019-02-15T04:20:12.045Z,102228.44
2019-02-15T04:22:40.041Z,102240.88
2019-02-15T04:25:08.213Z,102238.92
2019-02-15T04:27:36.210Z,102241.72
2019-02-15T04:30:04.295Z,102246.91
2019-02-15T04:32:32.310Z,102246.67
2019-02-15T04:35:00.342Z,102243.55
2019-02-15T04:37:28.269Z,102246.71
2019-02-15T04:39:56.350Z,102247.66
2019-02-15T04:42:24.461Z,102244.75
2019-02-15T04:44:52.573Z,102241.14
2019-02-15T04:47:20.630Z,102243.11
2019-02-15T04:49:48.704Z,102243.85
2019-02-15T04:52:16.703Z,102239.36
2019-02-15T04:54:44.710Z,102244.59
2019-02-15T04:57:12.883Z,102239.18
2019-02-15T04:59:41.146Z,102238.23
2019-02-15T05:02:09.257Z,102239.92
2019-02-15T05:04:37.251Z,102244.78
2019-02-15T05:07:05.279Z,102243.91
2019-02-15T05:09:33.313Z,102240.67
2019-02-15T05:12:03.765Z,102236.74
2019-02-15T05:14:31.225Z,102232.30
2019-02-15T05:16:59.325Z,102237.55
2019-02-15T05:19:27.375Z,102226.70
2019-02-15T05:21:55.401Z,102230.25
2019-02-15T05:24:23.449Z,102233.43
2019-02-15T05:26:51.541Z,102231.32
2019-02-15T05:29:19.583Z,102229.86
2019-02-15T05:31:47.632Z,102227.57
2019-02-15T05:34:15.665Z,102232.66
2019-02-15T05:36:43.705Z,102230.88
2019-02-15T05:39:11.804Z,102226.86
2019-02-15T05:41:39.813Z,102223.26
2019-02-15T05:44:07.755Z,102222.27
2019-02-15T05:46:35.898Z,102221.32
2019-02-15T05:49:03.929Z,102221.23
2019-02-15T05:51:32.076Z,102222.55
2019-02-15T05:54:00.072Z,102228.02
2019-02-15T05:56:28.094Z,102225.81
2019-02-15T05:58:56.135Z,102224.03
2019-02-15T06:01:25.410Z,102229.27
2019-02-15T06:03:53.458Z,102229.27
2019-02-15T06:06:21.452Z,102226.97
2019-02-15T06:08:49.504Z,102225.66
2019-02-15T06:11:17.528Z,102227.98
2019-02-15T06:13:45.631Z,102226.67
2019-02-15T06:16:13.766Z,102225.36
2019-02-15T06:18:41.775Z,102230.66
2019-02-15T06:21:09.852Z,102226.87
2019-02-15T06:23:37.824Z,102230.98
2019-02-15T06:26:05.928Z,102230.89
2019-02-15T06:28:33.950Z,102231.88
2019-02-15T06:31:02.022Z,102228.28
2019-02-15T06:33:29.997Z,102232.86
2019-02-15T06:35:58.007Z,102233.69
2019-02-15T06:38:34.522Z,102234.52
2019-02-15T06:40:55.857Z,102238.92
2019-02-15T06:43:23.887Z,102243.03
2019-02-15T06:45:51.959Z,102248.91
2019-02-15T06:48:20.097Z,102244.33
2019-02-15T06:50:48.156Z,102241.70
2019-02-15T06:53:16.309Z,102249.55
2019-02-15T06:55:44.323Z,102250.36
2019-02-15T06:58:12.362Z,102248.58
2019-02-15T07:00:48.826Z,102247.24
2019-02-15T07:03:40.140Z,102249.03
2019-02-15T07:06:08.500Z,102251.83
2019-02-15T07:08:36.554Z,102249.03
2019-02-15T07:11:04.607Z,102251.27
2019-02-15T07:13:32.631Z,102256.44
2019-02-15T07:16:00.782Z,102258.20
2019-02-15T07:18:28.783Z,102252.91
2019-02-15T07:20:56.793Z,102258.13
2019-02-15T07:23:24.870Z,102254.59
2019-02-15T07:25:52.955Z,102252.94
2019-02-15T07:28:21.009Z,102254.03
2019-02-15T07:30:49.003Z,102250.91
2019-02-15T07:33:17.044Z,102253.42
2019-02-15T07:35:45.017Z,102248.11
2019-02-15T07:38:13.085Z,102249.50
2019-02-15T07:40:41.129Z,102244.11
2019-02-15T07:43:09.121Z,102241.70
2019-02-15T07:45:42.837Z,102246.09
2019-02-15T07:48:07.095Z,102247.53
2019-02-15T07:50:35.162Z,102245.19
2019-02-15T07:53:03.263Z,102241.58
2019-02-15T07:55:31.280Z,102236.19
2019-02-15T07:57:59.351Z,102234.70
2019-02-15T08:00:27.422Z,102238.72
2019-02-15T08:02:55.488Z,102236.90
2019-02-15T08:05:23.772Z,102239.31
2019-02-15T08:07:51.796Z,102235.11
2019-02-15T08:10:19.841Z,102237.03
2019-02-15T08:12:48.032Z,102235.73
2019-02-15T08:15:16.112Z,102228.75
2019-02-15T08:17:44.230Z,102233.30
2019-02-15T08:20:12.233Z,102233.37
2019-02-15T08:22:40.401Z,102238.18
2019-02-15T08:25:08.588Z,102231.42
2019-02-15T08:27:36.601Z,102237.56
2019-02-15T08:30:05.099Z,102237.14
2019-02-15T08:32:34.592Z,102229.94
2019-02-15T08:35:02.942Z,102233.09
2019-02-15T08:37:30.960Z,102229.78
2019-02-15T08:39:58.991Z,102230.34
2019-02-15T08:42:27.105Z,102227.44
2019-02-15T08:44:55.164Z,102226.25
2019-02-15T08:47:23.261Z,102232.14
2019-02-15T08:49:51.269Z,102236.30
2019-02-15T08:52:19.547Z,102228.05
2019-02-15T08:54:47.632Z,102231.34
2019-02-15T08:57:15.599Z,102232.30
2019-02-15T08:59:43.707Z,102228.18
2019-02-15T09:02:18.907Z,102220.88
2019-02-15T09:04:46.987Z,102220.51
2019-02-15T09:07:15.001Z,102220.22
2019-02-15T09:09:43.029Z,102225.23
2019-02-15T09:12:11.023Z,102229.41
2019-02-15T09:14:39.116Z,102223.03
2019-02-15T09:17:07.212Z,102223.84
2019-02-15T09:19:35.268Z,102224.03
2019-02-15T09:22:03.304Z,102223.71
2019-02-15T09:24:31.348Z,102223.68
2019-02-15T09:27:02.222Z,102225.80
2019-02-15T09:29:30.293Z,102224.59
2019-02-15T09:31:58.386Z,102221.45
2019-02-15T09:34:26.448Z,102225.58
2019-02-15T09:36:54.558Z,102223.13
2019-02-15T09:39:22.636Z,102217.08
2019-02-15T09:41:50.728Z,102215.62
2019-02-15T09:44:18.867Z,102213.21
2019-02-15T09:46:46.984Z,102213.23
2019-02-15T09:49:15.108Z,102216.35
2019-02-15T09:51:43.259Z,102213.58
2019-02-15T09:54:11.287Z,102206.59
2019-02-15T09:56:39.345Z,102210.73
2019-02-15T09:59:07.121Z,102205.94
2019-02-15T10:01:35.216Z,102198.43
2019-02-15T10:04:03.285Z,102193.62
2019-02-15T10:06:31.399Z,102193.28
2019-02-15T10:08:59.465Z,102191.06
2019-02-15T10:11:27.580Z,102191.96
2019-02-15T10:13:55.678Z,102185.77
2019-02-15T10:16:29.792Z,102183.98
2019-02-15T10:18:53.501Z,102196.90
2019-02-15T10:21:21.566Z,102191.08
2019-02-15T10:23:49.602Z,102194.20
2019-02-15T10:26:17.644Z,102194.19
2019-02-15T10:28:45.704Z,102189.23
2019-02-15T10:31:13.742Z,102195.46
2019-02-15T10:33:42.092Z,102192.34
2019-02-15T10:36:10.187Z,102188.73
2019-02-15T10:38:38.218Z,102189.11
2019-02-15T10:41:06.289Z,102181.07
2019-02-15T10:43:34.334Z,102178.80
2019-02-15T10:46:02.405Z,102176.00
2019-02-15T10:48:30.515Z,102178.66
2019-02-15T10:50:58.752Z,102172.22
2019-02-15T10:53:26.839Z,102168.01
2019-02-15T10:55:54.836Z,102171.95
2019-02-15T10:58:22.885Z,102164.60
2019-02-15T11:00:50.900Z,102163.17
2019-02-15T11:03:18.961Z,102157.18
2019-02-15T11:05:47.251Z,102155.33
2019-02-15T11:08:15.363Z,102149.87
2019-02-15T11:10:43.489Z,102138.52
2019-02-15T11:13:11.591Z,102140.69
2019-02-15T11:15:39.743Z,102139.70
2019-02-15T11:18:07.975Z,102136.38
2019-02-15T11:20:36.299Z,102133.55
2019-02-15T11:23:04.442Z,102127.97
2019-02-15T11:25:32.560Z,102126.47
2019-02-15T11:28:00.655Z,102129.27
2019-02-15T11:30:28.730Z,102119.27
2019-02-15T11:32:56.894Z,102116.62
2019-02-15T11:35:25.097Z,102114.22
2019-02-15T11:37:53.098Z,102106.69
2019-02-15T11:40:21.629Z,102102.30
2019-02-15T11:42:50.061Z,102101.82
2019-02-15T11:45:18.248Z,102102.62
2019-02-15T11:47:46.358Z,102104.47
2019-02-15T11:50:35.184Z,102094.64
2019-02-15T11:53:03.228Z,102095.59
2019-02-15T11:55:31.534Z,102093.44
2019-02-15T11:57:59.653Z,102090.76
2019-02-15T12:00:31.654Z,102085.64
2019-02-15T12:02:59.712Z,102088.24
2019-02-15T12:05:27.866Z,102079.35
2019-02-15T12:07:55.980Z,102078.88
2019-02-15T12:10:24.189Z,102071.45
2019-02-15T12:12:52.549Z,102074.70
2019-02-15T12:15:20.891Z,102070.81
2019-02-15T12:17:49.172Z,102073.13
2019-02-15T12:20:17.613Z,102069.86
2019-02-15T12:22:45.873Z,102061.03
2019-02-15T12:25:14.300Z,102069.86
2019-02-15T12:27:42.599Z,102070.67
2019-02-15T12:30:11.556Z,102058.27
2019-02-15T12:32:40.179Z,102057.20
2019-02-15T12:35:08.858Z,102061.70
2019-02-15T12:37:37.435Z,102060.81
2019-02-15T12:40:06.198Z,102057.81
2019-02-15T12:42:34.536Z,102046.38
2019-02-15T12:45:02.954Z,102047.85
2019-02-15T12:47:31.294Z,102041.28
2019-02-15T12:49:59.631Z,102041.52
2019-02-15T12:52:27.884Z,102044.39
2019-02-15T12:54:56.280Z,102030.52
2019-02-15T12:57:24.596Z,102037.75
2019-02-15T12:59:52.920Z,102032.97
2019-02-15T13:02:21.324Z,102024.70
2019-02-15T13:04:49.568Z,102019.80
2019-02-15T13:07:17.948Z,102019.80
2019-02-15T13:09:46.364Z,102016.05
2019-02-15T13:12:14.601Z,102010.34
2019-02-15T13:14:42.845Z,102010.97
2019-02-15T13:17:11.133Z,102010.97
2019-02-15T13:19:39.395Z,102009.22
2019-02-15T13:22:07.655Z,102005.23
2019-02-15T13:24:35.925Z,102008.65
2019-02-15T13:27:07.383Z,101996.12
2019-02-15T13:29:38.281Z,101991.06
2019-02-15T13:32:07.553Z,101988.32
2019-02-15T13:34:35.984Z,101982.89
2019-02-15T13:37:04.544Z,101977.86
2019-02-15T13:39:32.857Z,101975.23
2019-02-15T13:42:01.246Z,101965.85
2019-02-15T13:44:30.224Z,101963.67
2019-02-15T13:46:58.614Z,101965.90
2019-02-15T13:49:26.979Z,101962.43
2019-02-15T13:51:55.386Z,101955.45
2019-02-15T13:54:24.040Z,101951.56
2019-02-15T13:56:52.318Z,101944.65
2019-02-15T13:59:20.704Z,101943.57
2019-02-15T14:01:49.207Z,101941.65
2019-02-15T14:04:17.658Z,101941.52
2019-02-15T14:06:55.834Z,101939.62
2019-02-15T14:09:24.456Z,101934.23
2019-02-15T14:11:53.037Z,101936.14
2019-02-15T14:14:21.393Z,101934.77
2019-02-15T14:16:49.694Z,101939.31
2019-02-15T14:19:18.021Z,101937.65
2019-02-15T14:21:46.718Z,101927.91
2019-02-15T14:24:15.208Z,101926.56
2019-02-15T14:26:43.609Z,101925.36
2019-02-15T14:29:12.279Z,101925.36
2019-02-15T14:31:40.627Z,101921.49
2019-02-15T14:34:08.857Z,101921.34
2019-02-15T14:36:37.176Z,101924.44
2019-02-15T14:39:08.227Z,101916.41
2019-02-15T14:41:36.628Z,101917.72
2019-02-15T14:44:05.030Z,101910.53
2019-02-15T14:46:33.425Z,101906.03
2019-02-15T14:49:01.801Z,101906.91
2019-02-15T14:51:30.212Z,101911.66
2019-02-15T14:53:58.601Z,101899.98
2019-02-15T14:56:27.147Z,101899.52
2019-02-15T14:58:55.664Z,101897.91
2019-02-15T15:01:24.083Z,101883.42
2019-02-15T15:03:52.540Z,101887.02
2019-02-15T15:06:20.892Z,101888.56
2019-02-15T15:08:49.271Z,101883.61
2019-02-15T15:11:17.544Z,101875.01
2019-02-15T15:13:46.008Z,101881.19
2019-02-15T15:16:14.336Z,101877.15
2019-02-15T15:18:42.618Z,101874.28
2019-02-15T15:21:10.971Z,101867.36
2019-02-15T15:23:39.283Z,101870.73
2019-02-15T15:26:11.838Z,101865.02
2019-02-15T15:28:37.539Z,101861.48
2019-02-15T15:31:05.838Z,101863.73
2019-02-15T15:33:34.240Z,101857.39
2019-02-15T15:36:02.628Z,101856.34
2019-02-15T15:38:30.923Z,101851.05
2019-02-15T15:40:59.212Z,101847.48
2019-02-15T15:43:27.589Z,101844.75
2019-02-15T15:45:56.191Z,101842.52
2019-02-15T15:48:24.632Z,101843.09
2019-02-15T15:50:52.950Z,101842.11
2019-02-15T15:53:21.214Z,101837.91
2019-02-15T15:55:49.593Z,101838.05
2019-02-15T15:58:18.341Z,101838.66
2019-02-15T16:00:46.847Z,101838.04
2019-02-15T16:03:15.144Z,101838.52
2019-02-15T16:05:43.610Z,101840.11
2019-02-15T16:08:12.327Z,101842.95
2019-02-15T16:10:40.664Z,101834.72
2019-02-15T16:13:09.510Z,101828.89
2019-02-15T16:15:38.329Z,101830.38
2019-02-15T16:18:06.836Z,101829.31
2019-02-15T16:20:35.206Z,101835.11
2019-02-15T16:23:03.825Z,101833.92
2019-02-15T16:25:32.135Z,101831.55
2019-02-15T16:28:00.451Z,101838.31
2019-02-15T16:30:29.038Z,101835.41
2019-02-15T16:32:57.530Z,101841.95
2019-02-15T16:35:26.006Z,101832.29
2019-02-15T16:37:54.574Z,101839.45
2019-02-15T16:40:22.972Z,101838.00
2019-02-15T16:42:51.799Z,101836.41
2019-02-15T16:45:20.953Z,101831.58
2019-02-15T16:47:49.259Z,101832.85
2019-02-15T16:50:17.566Z,101835.70
2019-02-15T16:52:45.900Z,101828.82
2019-02-15T16:55:14.161Z,101827.53
2019-02-15T16:57:42.619Z,101831.55
2019-02-15T17:00:11.587Z,101822.23
2019-02-15T17:02:39.909Z,101828.04
2019-02-15T17:05:08.369Z,101822.78
2019-02-15T17:07:36.694Z,101821.11
2019-02-15T17:10:05.265Z,101820.28
2019-02-15T17:12:33.678Z,101828.47
2019-02-15T17:15:01.977Z,101824.15
2019-02-15T17:17:30.461Z,101822.92
2019-02-15T17:19:58.904Z,101818.81
2019-02-15T17:22:27.430Z,101814.14
2019-02-15T17:24:56.024Z,101822.09
2019-02-15T17:27:24.447Z,101821.91
2019-02-15T17:29:52.717Z,101821.05
2019-02-15T17:32:20.983Z,101816.17
2019-02-15T17:34:49.292Z,101819.73
2019-02-15T17:37:17.586Z,101815.31
2019-02-15T17:39:46.246Z,101810.88
2019-02-15T17:42:14.598Z,101822.31
2019-02-15T17:44:42.907Z,101813.45
2019-02-15T17:47:11.317Z,101811.73
2019-02-15T17:49:39.579Z,101817.54
2019-02-15T17:52:08.055Z,101813.52
2019-02-15T17:54:36.323Z,101814.42
2019-02-15T17:57:04.789Z,101809.48
2019-02-15T17:59:33.213Z,101807.63
2019-02-15T18:02:04.051Z,101811.30
2019-02-15T18:04:31.131Z,101815.30
2019-02-15T18:06:59.770Z,101811.31
2019-02-15T18:09:28.411Z,101802.87
2019-02-15T18:11:56.897Z,101807.76
2019-02-15T18:14:25.283Z,101801.94
2019-02-15T18:16:53.919Z,101805.08
2019-02-15T18:19:22.433Z,101802.63
2019-02-15T18:21:51.256Z,101798.41
2019-02-15T18:24:19.976Z,101801.87
2019-02-15T18:26:48.320Z,101801.95
2019-02-15T18:31:50.945Z,101802.59
2019-02-15T18:34:20.219Z,101795.27
2019-02-15T18:36:48.910Z,101792.33
2019-02-15T18:39:17.937Z,101786.97
2019-02-15T18:41:46.763Z,101789.27
2019-02-15T18:44:15.231Z,101785.24
2019-02-15T18:46:43.718Z,101784.28
2019-02-15T18:49:19.204Z,101784.37
2019-02-15T18:51:42.680Z,101785.25
2019-02-15T18:54:11.569Z,101777.72
2019-02-15T18:56:40.278Z,101779.03
2019-02-15T18:59:09.739Z,101781.86
2019-02-15T19:01:38.357Z,101776.64
2019-02-15T19:04:07.176Z,101769.98
2019-02-15T19:06:35.960Z,101765.03
2019-02-15T19:09:06.387Z,101766.48
2019-02-15T19:11:35.007Z,101764.34
2019-02-15T19:14:03.547Z,101763.38
2019-02-15T19:16:32.239Z,101761.16
2019-02-15T19:19:00.671Z,101758.19
2019-02-15T19:21:29.774Z,101756.33
2019-02-15T19:23:58.384Z,101757.44
2019-02-15T19:26:27.138Z,101753.66
2019-02-15T19:28:55.755Z,101745.95
2019-02-15T19:31:24.626Z,101739.70
2019-02-15T19:33:53.600Z,101745.31
2019-02-15T19:36:22.494Z,101741.89
2019-02-15T19:38:51.549Z,101741.80
2019-02-15T19:41:21.029Z,101744.59
2019-02-15T19:43:50.582Z,101739.09
2019-02-15T19:46:19.962Z,101737.36
2019-02-15T19:48:49.518Z,101742.14
2019-02-15T19:51:19.222Z,101734.38
2019-02-15T19:53:48.152Z,101737.10
2019-02-15T19:56:16.959Z,101724.67
2019-02-15T19:58:46.432Z,101728.17
2019-02-15T20:01:15.743Z,101721.22
2019-02-15T20:03:44.832Z,101730.35
2019-02-15T20:06:13.794Z,101725.61
2019-02-15T20:08:42.775Z,101727.22
2019-02-15T20:11:12.071Z,101725.48
2019-02-15T20:13:41.015Z,101724.98
2019-02-15T20:16:10.653Z,101726.62
2019-02-15T20:18:41.959Z,101722.22
2019-02-15T20:21:12.242Z,101718.58
2019-02-15T20:23:41.816Z,101709.14
2019-02-15T20:26:11.075Z,101711.38
2019-02-15T20:28:40.758Z,101712.97
2019-02-15T20:31:11.172Z,101712.75
2019-02-15T20:33:40.119Z,101719.17
2019-02-15T20:36:20.533Z,101718.22
2019-02-15T20:38:51.663Z,101715.55
2019-02-15T20:41:20.674Z,101710.88
2019-02-15T20:43:50.535Z,101712.41
2019-02-15T20:46:20.102Z,101710.00
2019-02-15T20:48:49.603Z,101707.95
2019-02-15T20:51:18.895Z,101707.28
2019-02-15T20:53:51.536Z,101700.39
2019-02-15T20:56:20.424Z,101699.80
2019-02-15T20:58:49.743Z,101699.88
2019-02-15T21:01:20.625Z,101698.63
2019-02-15T21:03:49.761Z,101703.14
2019-02-15T21:06:18.754Z,101697.00
2019-02-15T21:08:47.703Z,101705.08
2019-02-15T21:11:16.406Z,101695.05
2019-02-15T21:13:45.734Z,101698.07
2019-02-15T21:16:15.030Z,101698.33
2019-02-15T21:18:43.692Z,101696.38
2019-02-15T21:21:16.115Z,101700.45
2019-02-15T21:23:45.013Z,101697.81
2019-02-15T21:26:14.076Z,101695.97
2019-02-15T21:28:42.829Z,101692.59
2019-02-15T21:31:12.281Z,101694.13
2019-02-15T21:33:40.895Z,101693.44
2019-02-15T21:36:09.855Z,101691.84
2019-02-15T21:38:38.756Z,101692.05
2019-02-15T21:41:08.350Z,101693.36
2019-02-15T21:43:36.900Z,101689.95
2019-02-15T21:46:05.614Z,101686.34
2019-02-15T21:48:34.091Z,101684.63
2019-02-15T21:51:02.790Z,101681.27
2019-02-15T21:53:31.801Z,101681.85
2019-02-15T21:56:00.501Z,101677.13
2019-02-15T21:58:28.980Z,101670.08
2019-02-15T22:00:58.097Z,101668.35
2019-02-15T22:03:26.899Z,101668.23
2019-02-15T22:05:55.275Z,101660.39
2019-02-15T22:08:24.296Z,101665.06
2019-02-15T22:10:53.332Z,101660.69
2019-02-15T22:13:22.393Z,101656.78
2019-02-15T22:15:52.263Z,101659.64
2019-02-15T22:18:21.253Z,101654.14
2019-02-15T22:20:49.834Z,101646.94
2019-02-15T22:23:18.385Z,101650.34
2019-02-15T22:25:47.301Z,101647.61
2019-02-15T22:28:15.857Z,101648.58
2019-02-15T22:30:44.742Z,101647.33
2019-02-15T22:33:12.987Z,101644.97
2019-02-15T22:35:41.476Z,101639.38
2019-02-15T22:38:09.833Z,101641.14
2019-02-15T22:40:40.088Z,101637.11
2019-02-15T22:43:20.249Z,101634.48
2019-02-15T22:45:48.623Z,101634.66
2019-02-15T22:48:17.323Z,101640.34
2019-02-15T22:50:45.546Z,101629.91
2019-02-15T22:53:13.930Z,101627.27
2019-02-15T22:55:42.206Z,101630.91
2019-02-15T22:58:10.811Z,101629.90
2019-02-15T23:00:48.711Z,101624.48
2019-02-15T23:03:18.850Z,101619.33
2019-02-15T23:05:47.113Z,101617.03
2019-02-15T23:08:15.450Z,101618.27
2019-02-15T23:10:43.744Z,101614.79
2019-02-15T23:13:12.121Z,101618.03
2019-02-15T23:15:40.449Z,101619.84
2019-02-15T23:18:08.698Z,101623.02
2019-02-15T23:20:44.932Z,101613.59
2019-02-15T23:23:06.905Z,101607.16
2019-02-15T23:25:35.156Z,101610.45
2019-02-15T23:28:03.570Z,101609.95
2019-02-15T23:30:31.867Z,101606.92
2019-02-15T23:33:00.151Z,101602.39
2019-02-15T23:35:28.635Z,101608.06
2019-02-15T23:37:56.941Z,101599.98
2019-02-15T23:40:25.185Z,101605.52
2019-02-15T23:42:53.435Z,101602.96
2019-02-15T23:45:21.689Z,101607.47
2019-02-15T23:47:49.913Z,101467.13
2019-02-15T23:50:18.365Z,101598.17
2019-02-15T23:52:46.728Z,101600.13
2019-02-15T23:55:14.956Z,101599.89
2019-02-15T23:57:43.279Z,101596.27
